Pagina principale
METAR-TAF:

METAR-TAF

Aeroporti :

Aeroporto di Klagenfurt

Klagenfurt, Austria

latitudine: 46-39N, longitudine: 014-20E, altezza: 448 m

Osservazione

Il bollettino è stato emesso 25 minuti fa, alle 11:20 UTC
Vento 3 kt da direzioni variabili
Temperature 22°C
Umidità 41%
Pressione 1026 hPa
Visibilità 10 km o più
Poco nuvoloso ad un'altezza di 5000 ft

METAR: LOWK 191120Z VRB03KT 9999 FEW050 22/08 Q1026 NOSIG

Ora: 13:45 (11:45 UTC)

Previsione

Il bollettino è stato emesso 30 minuti fa, alle 11:15 UTC
Previsione valida dal 19 alle 12 UTC al 20 alle 12 UTC
Vento 2 kt da direzioni variabili
Visibilità 10 km o più
Poco nuvoloso ad un'altezza di 6000 ft
Temporaneamente
dal 19 alle 12 UTC al 19 alle 18 UTC
Vento 7 kt da sud
Probabilità 40%
dal 20 alle 11 UTC al 20 alle 12 UTC
Poco nuvoloso ad un'altezza di 6000 ft, Cumulonembo.

TAF: LOWK 191115Z 1912/2012 VRB02KT 9999 FEW060 TX27/2012Z TN13/2004Z TEMPO 1912/1918 18007KT PROB40 2011/2012 FEW060CB

Osservazioni e previsioni meteorologiche di più di 4000 aeroporti (messaggi METAR e TAF).

Le stazioni disponibili sono rappresentate dai dischi gialli e rossi sulla carta.

Puntare il mouse per vedere il nome della stazione.

Clicca sopra per visualizzare le osservazioni e previsioni meteorologiche.

Per cambiare la mappa : fare clic sui pulsanti verdi con una croce nera per ingrandire, il pulsante verde con un trattino per diminuire, o sulla freccia verde per le mappe adiacenti.


METAR-TAF: